Time;durP1;ratioP1;P1;durP2;ratioP2;P2;SDS_P1;SDS_P2;PMS_P1;PMS_P2;Temp;Humidity;BMP_temperature;BMP_pressure;BME280_temperature;BME280_humidity;BME280_pressure;Samples;Min_cycle;Max_cycle;Signal;HPM_P1;HPM_P2
2022/07/20 00:02:03;;;;;;;5.67;2.70;;;23.00;86.60;;;;;;5074454;28;20178;-74
2022/07/20 00:04:28;;;;;;;2.73;2.53;;;22.90;85.40;;;;;;5073781;28;20611;-74
2022/07/20 00:06:55;;;;;;;3.50;3.13;;;22.90;87.50;;;;;;5074273;28;20171;-74
2022/07/20 00:12:05;;;;;;;2.83;2.50;;;22.80;86.80;;;;;;5074185;28;20426;-74
2022/07/20 00:14:31;;;;;;;3.20;2.93;;;22.70;87.10;;;;;;5073712;28;20400;-74
2022/07/20 00:16:56;;;;;;;6.93;4.30;;;22.60;87.30;;;;;;5072424;28;20427;-74
2022/07/20 00:19:22;;;;;;;3.80;2.90;;;22.60;88.70;;;;;;5073807;28;20206;-74
2022/07/20 00:21:48;;;;;;;4.17;3.60;;;22.50;90.20;;;;;;5073842;28;20200;-74
2022/07/20 00:24:13;;;;;;;3.50;2.83;;;22.50;91.50;;;;;;5073736;28;20376;-74
2022/07/20 00:26:39;;;;;;;4.10;2.80;;;22.40;91.90;;;;;;5073850;28;20667;-74
2022/07/20 00:29:04;;;;;;;3.00;2.80;;;22.40;93.00;;;;;;5073666;28;20270;-74
2022/07/20 00:31:30;;;;;;;4.20;3.20;;;22.40;93.70;;;;;;5073608;28;20173;-74
2022/07/20 00:33:55;;;;;;;3.00;2.03;;;22.40;94.20;;;;;;5073705;28;20253;-74
2022/07/20 00:36:21;;;;;;;3.50;2.90;;;22.30;96.00;;;;;;5072065;28;20220;-74
2022/07/20 00:38:47;;;;;;;6.03;2.40;;;22.30;97.70;;;;;;5073557;28;20174;-74
2022/07/20 00:41:12;;;;;;;3.40;3.00;;;22.30;97.40;;;;;;5073309;28;20895;-74
2022/07/20 00:43:57;;;;;;;2.93;2.73;;;22.20;97.10;;;;;;5073405;28;20170;-74
2022/07/20 00:46:23;;;;;;;3.33;3.13;;;22.20;97.50;;;;;;5073167;28;20241;-74
2022/07/20 00:48:49;;;;;;;2.83;2.47;;;22.10;97.50;;;;;;5073321;28;20488;-74
2022/07/20 00:51:15;;;;;;;3.33;3.07;;;22.10;98.60;;;;;;5073436;28;20400;-74
2022/07/20 00:53:42;;;;;;;2.93;2.73;;;22.10;99.80;;;;;;5073275;28;20437;-74
2022/07/20 00:56:07;;;;;;;4.77;3.30;;;22.10;99.90;;;;;;5072983;28;20443;-74
2022/07/20 00:58:34;;;;;;;5.60;3.20;;;22.00;99.90;;;;;;5073047;28;20393;-74
2022/07/20 01:01:00;;;;;;;3.40;3.10;;;22.00;99.90;;;;;;5072763;28;20206;-74
2022/07/20 01:03:25;;;;;;;3.60;2.60;;;22.00;99.90;;;;;;5073032;28;20421;-74
2022/07/20 01:05:51;;;;;;;3.83;3.53;;;22.00;99.90;;;;;;5072823;28;20170;-74
2022/07/20 01:08:16;;;;;;;7.00;3.03;;;22.00;99.90;;;;;;5073083;28;20253;-74
2022/07/20 01:10:42;;;;;;;3.90;2.47;;;21.90;99.90;;;;;;5072711;28;20272;-74
2022/07/20 01:13:08;;;;;;;3.80;2.87;;;21.90;99.90;;;;;;5072652;28;20174;-74
2022/07/20 01:15:33;;;;;;;3.00;2.70;;;21.90;99.90;;;;;;5072649;28;20170;-74
2022/07/20 01:17:59;;;;;;;2.60;2.40;;;21.90;99.90;;;;;;5072648;28;20178;-74
2022/07/20 01:20:25;;;;;;;3.40;3.10;;;21.80;99.90;;;;;;5072500;28;20248;-74
2022/07/20 01:22:51;;;;;;;3.40;3.10;;;21.90;99.90;;;;;;5072684;28;20170;-74
2022/07/20 01:25:16;;;;;;;2.80;2.20;;;21.90;99.90;;;;;;5072278;28;20818;-74
2022/07/20 01:27:42;;;;;;;2.80;2.27;;;21.90;99.90;;;;;;5072412;28;20403;-74
2022/07/20 01:30:09;;;;;;;7.07;3.00;;;21.90;99.90;;;;;;5072533;28;20263;-74
2022/07/20 01:32:34;;;;;;;4.83;3.00;;;22.00;99.90;;;;;;5072488;28;20177;-74
2022/07/20 01:35:00;;;;;;;4.27;3.00;;;22.00;99.90;;;;;;5072218;28;20417;-74
2022/07/20 01:37:26;;;;;;;3.00;2.70;;;22.00;99.90;;;;;;5072356;28;20166;-74
2022/07/20 01:39:51;;;;;;;2.60;2.40;;;22.00;99.90;;;;;;5072443;28;20197;-74
2022/07/20 01:42:17;;;;;;;3.80;3.37;;;22.00;99.90;;;;;;5071362;28;20178;-74
2022/07/20 01:44:42;;;;;;;4.10;3.43;;;22.10;99.90;;;;;;5071739;28;20685;-74
2022/07/20 01:47:08;;;;;;;3.10;2.80;;;22.10;99.90;;;;;;5072090;28;20166;-74
2022/07/20 01:49:34;;;;;;;4.83;2.77;;;22.20;99.90;;;;;;5072182;28;20190;-74
2022/07/20 01:52:00;;;;;;;5.13;2.87;;;22.10;99.90;;;;;;5072223;28;20193;-74
2022/07/20 01:54:26;;;;;;;2.63;2.43;;;22.10;99.90;;;;;;5071943;28;20219;-74
2022/07/20 01:56:52;;;;;;;4.00;3.03;;;22.10;99.90;;;;;;5071176;28;20405;-74
2022/07/20 01:59:17;;;;;;;2.87;2.30;;;22.10;99.90;;;;;;5072058;28;20209;-74
2022/07/20 02:01:43;;;;;;;2.70;2.47;;;22.10;99.90;;;;;;5070997;28;20184;-74
2022/07/20 02:04:08;;;;;;;2.90;2.50;;;22.10;99.90;;;;;;5070995;28;20162;-73
2022/07/20 02:06:34;;;;;;;2.90;2.47;;;22.10;99.90;;;;;;5072125;28;20201;-74
2022/07/20 02:09:00;;;;;;;2.90;2.60;;;22.10;99.90;;;;;;5071990;28;20239;-74
2022/07/20 02:11:25;;;;;;;4.37;3.47;;;22.10;99.90;;;;;;5072296;28;20533;-75
2022/07/20 02:13:51;;;;;;;2.70;2.50;;;22.10;99.90;;;;;;5073267;28;20662;-75
2022/07/20 02:16:16;;;;;;;3.17;2.60;;;22.10;99.90;;;;;;5075359;28;20170;-75
2022/07/20 02:18:46;;;;;;;3.87;3.53;;;22.10;99.90;;;;;;5079325;28;20166;-75
2022/07/20 02:21:13;;;;;;;2.87;2.60;;;22.10;99.90;;;;;;5079692;28;20170;-75
2022/07/20 02:23:38;;;;;;;4.17;2.70;;;22.10;99.90;;;;;;5079483;28;20388;-75
2022/07/20 02:26:04;;;;;;;2.90;2.70;;;22.10;99.90;;;;;;5077055;28;20408;-73
2022/07/20 02:28:30;;;;;;;3.00;2.80;;;22.10;99.90;;;;;;5078417;28;20583;-73
2022/07/20 02:30:55;;;;;;;3.00;2.47;;;22.10;99.90;;;;;;5078117;28;20420;-74
2022/07/20 02:33:21;;;;;;;6.83;3.53;;;22.10;99.90;;;;;;5078653;28;20204;-74
2022/07/20 02:35:47;;;;;;;4.87;3.20;;;22.10;99.90;;;;;;5078094;28;20576;-74
2022/07/20 02:38:13;;;;;;;2.80;2.60;;;22.00;99.90;;;;;;5078287;28;20166;-74
2022/07/20 02:40:38;;;;;;;5.43;3.10;;;22.00;99.90;;;;;;5078405;28;20197;-74
2022/07/20 02:43:05;;;;;;;4.50;3.30;;;22.00;99.90;;;;;;5078519;28;20215;-73
2022/07/20 02:45:30;;;;;;;2.80;2.57;;;21.90;99.90;;;;;;5077920;28;20162;-73
2022/07/20 02:48:02;;;;;;;2.93;2.63;;;21.80;99.90;;;;;;5078127;28;20407;-74
2022/07/20 02:50:38;;;;;;;6.10;4.40;;;21.80;99.90;;;;;;5078318;28;20835;-74
2022/07/20 02:53:05;;;;;;;6.17;3.37;;;21.80;99.90;;;;;;5078147;28;20956;-74
2022/07/20 02:55:31;;;;;;;3.00;2.70;;;21.80;99.90;;;;;;5078019;28;20499;-74
2022/07/20 02:57:57;;;;;;;2.83;2.53;;;21.80;99.90;;;;;;5078111;28;20487;-73
2022/07/20 03:00:23;;;;;;;4.10;2.80;;;21.80;99.90;;;;;;5077946;28;20225;-74
2022/07/20 03:02:49;;;;;;;3.37;3.07;;;21.80;99.90;;;;;;5078014;28;20499;-73
2022/07/20 03:05:15;;;;;;;3.20;2.90;;;21.70;99.90;;;;;;5077684;28;20192;-73
2022/07/20 03:07:41;;;;;;;2.40;2.20;;;21.60;99.90;;;;;;5078051;28;20495;-73
2022/07/20 03:10:08;;;;;;;3.30;2.43;;;21.60;99.90;;;;;;5078886;28;20269;-73
2022/07/20 03:12:34;;;;;;;2.23;2.03;;;21.60;99.90;;;;;;5077717;28;20400;-73
2022/07/20 03:15:00;;;;;;;2.87;2.17;;;21.60;99.90;;;;;;5077600;28;20408;-73
2022/07/20 03:17:26;;;;;;;6.20;3.83;;;21.50;99.90;;;;;;5077983;28;20166;-74
2022/07/20 03:19:51;;;;;;;5.23;2.80;;;21.60;99.90;;;;;;5077787;28;20459;-73
2022/07/20 03:22:17;;;;;;;3.90;2.53;;;21.60;99.90;;;;;;5077597;28;20244;-73
2022/07/20 03:24:43;;;;;;;3.23;2.93;;;21.60;99.90;;;;;;5078578;28;20213;-75
2022/07/20 03:27:09;;;;;;;4.47;2.83;;;21.70;99.90;;;;;;5075832;28;20166;-74
2022/07/20 03:29:35;;;;;;;3.40;2.77;;;21.70;99.90;;;;;;5074882;28;20190;-75
2022/07/20 03:32:01;;;;;;;3.00;2.50;;;21.70;99.90;;;;;;5075358;28;20416;-75
2022/07/20 03:34:26;;;;;;;2.90;2.70;;;21.70;99.90;;;;;;5075159;28;20408;-75
2022/07/20 03:36:52;;;;;;;3.40;2.93;;;21.70;99.90;;;;;;5075338;28;20636;-75
2022/07/20 03:39:18;;;;;;;6.67;4.10;;;21.60;99.90;;;;;;5075227;28;20198;-73
2022/07/20 03:41:43;;;;;;;3.57;2.77;;;21.60;99.90;;;;;;5074325;28;20500;-74
2022/07/20 03:44:09;;;;;;;5.40;3.10;;;21.60;99.90;;;;;;5074626;28;20265;-74
2022/07/20 03:46:35;;;;;;;3.10;2.80;;;21.50;99.90;;;;;;5074127;28;20186;-74
2022/07/20 03:49:00;;;;;;;4.77;2.90;;;21.50;99.90;;;;;;5074300;28;20173;-73
2022/07/20 03:51:26;;;;;;;3.53;2.57;;;21.50;99.90;;;;;;5074274;28;20184;-74
2022/07/20 03:53:52;;;;;;;5.70;2.40;;;21.60;99.90;;;;;;5074364;28;20174;-75
2022/07/20 03:56:17;;;;;;;3.40;3.07;;;21.60;99.90;;;;;;5074748;28;20541;-74
2022/07/20 03:58:43;;;;;;;3.03;2.43;;;21.60;99.90;;;;;;5074854;28;20166;-75
2022/07/20 04:01:09;;;;;;;5.83;2.80;;;21.60;99.90;;;;;;5074759;28;20209;-73
2022/07/20 04:03:34;;;;;;;32.87;20.87;;;21.60;99.90;;;;;;5074087;28;20162;-73
2022/07/20 04:06:01;;;;;;;19.90;13.57;;;21.60;99.90;;;;;;5073719;28;20405;-73
2022/07/20 04:08:26;;;;;;;11.03;8.07;;;21.60;99.90;;;;;;5074104;28;20205;-75
2022/07/20 04:10:52;;;;;;;5.80;3.73;;;21.60;99.90;;;;;;5074177;28;20456;-73
2022/07/20 04:13:17;;;;;;;3.60;2.90;;;21.60;99.90;;;;;;5073919;28;20174;-73
2022/07/20 04:15:43;;;;;;;3.23;2.50;;;21.60;99.90;;;;;;5073587;28;20170;-73
2022/07/20 04:18:09;;;;;;;3.00;2.70;;;21.70;99.90;;;;;;5073584;28;20238;-74
2022/07/20 04:20:34;;;;;;;4.23;3.17;;;21.70;99.90;;;;;;5072397;28;21198;-73
2022/07/20 04:23:00;;;;;;;5.10;2.93;;;21.70;99.90;;;;;;5073656;28;20538;-73
2022/07/20 04:25:25;;;;;;;3.07;2.77;;;21.80;99.90;;;;;;5073023;28;20170;-73
2022/07/20 04:27:51;;;;;;;2.80;2.03;;;21.80;99.90;;;;;;5073546;28;20258;-73
2022/07/20 04:30:17;;;;;;;4.33;2.60;;;21.90;99.90;;;;;;5073535;28;20186;-73
2022/07/20 04:32:43;;;;;;;4.03;3.13;;;22.00;99.90;;;;;;5073585;28;20615;-74
2022/07/20 04:35:09;;;;;;;2.20;2.00;;;22.10;99.90;;;;;;5073038;28;20171;-74
2022/07/20 04:37:35;;;;;;;4.80;3.33;;;22.30;99.90;;;;;;5073376;28;20411;-73
2022/07/20 04:40:02;;;;;;;2.97;2.77;;;22.40;99.90;;;;;;5072761;28;20490;-74
2022/07/20 04:42:27;;;;;;;4.97;3.30;;;22.50;99.70;;;;;;5073330;28;20407;-74
2022/07/20 04:44:53;;;;;;;4.23;2.80;;;22.60;99.90;;;;;;5072973;28;20404;-74
2022/07/20 04:47:18;;;;;;;6.53;3.13;;;22.70;99.30;;;;;;5073210;28;20166;-74
2022/07/20 04:49:44;;;;;;;5.27;3.03;;;22.80;98.50;;;;;;5073095;28;20222;-74
2022/07/20 04:52:09;;;;;;;5.70;2.80;;;23.00;98.90;;;;;;5073110;28;20182;-74
2022/07/20 04:54:35;;;;;;;9.57;7.47;;;23.10;98.90;;;;;;5073074;28;20174;-74
2022/07/20 04:57:01;;;;;;;9.10;6.97;;;23.20;99.50;;;;;;5073572;28;20223;-74
2022/07/20 04:59:27;;;;;;;4.20;3.80;;;23.30;99.90;;;;;;5073129;28;20194;-74
2022/07/20 05:01:53;;;;;;;4.87;3.80;;;23.30;99.90;;;;;;5073039;28;20422;-74
2022/07/20 05:04:19;;;;;;;5.60;4.17;;;23.40;99.90;;;;;;5071542;28;20412;-74
2022/07/20 05:06:44;;;;;;;6.63;6.00;;;23.50;99.90;;;;;;5072982;28;20162;-73
2022/07/20 05:09:10;;;;;;;5.90;5.30;;;23.60;99.90;;;;;;5071616;28;20194;-73
2022/07/20 05:11:40;;;;;;;9.53;5.37;;;23.70;99.90;;;;;;5072924;28;20245;-73
2022/07/20 05:14:05;;;;;;;8.10;5.27;;;23.80;99.90;;;;;;5073103;28;20190;-74
2022/07/20 05:16:31;;;;;;;7.60;6.30;;;23.80;99.90;;;;;;5073280;28;20495;-74
2022/07/20 05:18:56;;;;;;;9.80;6.63;;;23.90;99.90;;;;;;5073122;28;20166;-74
2022/07/20 05:21:22;;;;;;;7.47;6.77;;;24.00;99.90;;;;;;5072563;28;20169;-73
2022/07/20 05:23:48;;;;;;;10.50;7.33;;;24.10;99.90;;;;;;5072085;28;20159;-73
2022/07/20 05:26:13;;;;;;;10.70;6.53;;;24.20;99.90;;;;;;5071979;28;20283;-73
2022/07/20 05:28:41;;;;;;;8.70;6.70;;;24.20;99.90;;;;;;5072486;28;20216;-72
2022/07/20 05:31:08;;;;;;;9.17;7.27;;;24.30;99.90;;;;;;5072263;28;20189;-74
2022/07/20 05:33:34;;;;;;;8.53;7.73;;;24.40;99.90;;;;;;5071774;28;20444;-74
2022/07/20 05:36:02;;;;;;;8.13;7.10;;;24.40;99.90;;;;;;5072811;28;20499;-74
2022/07/20 05:38:28;;;;;;;10.83;9.03;;;24.60;99.90;;;;;;5071451;28;20781;-73
2022/07/20 05:40:55;;;;;;;7.73;7.03;;;24.70;99.90;;;;;;5070975;28;20467;-74
2022/07/20 05:43:21;;;;;;;9.73;7.67;;;24.80;99.90;;;;;;5072955;28;20397;-74
2022/07/20 05:45:46;;;;;;;8.10;7.27;;;25.00;99.90;;;;;;5072306;28;20446;-73
2022/07/20 05:48:12;;;;;;;9.83;8.53;;;25.20;99.90;;;;;;5072309;28;20411;-73
2022/07/20 05:50:39;;;;;;;9.63;7.77;;;25.40;99.90;;;;;;5072409;28;20242;-74
2022/07/20 05:53:05;;;;;;;9.30;8.43;;;25.70;99.90;;;;;;5072744;28;20178;-74
2022/07/20 05:55:31;;;;;;;10.73;8.93;;;25.90;99.90;;;;;;5072388;28;20420;-73
2022/07/20 05:57:57;;;;;;;11.77;9.27;;;26.20;99.90;;;;;;5072839;28;20416;-73
2022/07/20 06:00:22;;;;;;;11.30;10.07;;;26.30;99.90;;;;;;5072774;28;20498;-74
2022/07/20 06:02:48;;;;;;;12.43;9.50;;;26.60;99.90;;;;;;5072036;28;20167;-73
2022/07/20 06:05:14;;;;;;;10.40;9.40;;;26.90;99.90;;;;;;5071694;28;20232;-74
2022/07/20 06:07:39;;;;;;;10.30;9.00;;;27.10;99.90;;;;;;5071887;28;20555;-74
2022/07/20 06:10:05;;;;;;;12.60;9.90;;;27.40;99.90;;;;;;5072047;28;20190;-74
2022/07/20 06:12:31;;;;;;;9.53;8.53;;;27.80;99.90;;;;;;5071737;28;20166;-74
2022/07/20 06:14:56;;;;;;;11.37;9.13;;;28.20;99.90;;;;;;5071567;28;20405;-73
2022/07/20 06:17:22;;;;;;;9.70;8.70;;;28.60;99.90;;;;;;5071801;28;20198;-74
2022/07/20 06:19:48;;;;;;;12.77;9.43;;;29.00;99.90;;;;;;5071720;28;20197;-74
2022/07/20 06:22:13;;;;;;;11.67;10.30;;;29.40;99.90;;;;;;5071720;28;20201;-74
2022/07/20 06:24:39;;;;;;;12.50;11.13;;;29.90;97.40;;;;;;5071538;28;20522;-74
2022/07/20 06:27:04;;;;;;;11.90;10.63;;;30.20;95.40;;;;;;5071845;28;20229;-73
2022/07/20 06:29:30;;;;;;;11.47;9.97;;;30.10;93.90;;;;;;5071671;28;20240;-74
2022/07/20 06:31:55;;;;;;;10.93;9.93;;;29.90;94.00;;;;;;5071791;28;20159;-74
2022/07/20 06:34:21;;;;;;;11.43;10.23;;;29.60;93.90;;;;;;5071381;28;20509;-74
2022/07/20 06:36:46;;;;;;;10.23;9.23;;;29.80;94.40;;;;;;5071631;28;20662;-72
2022/07/20 06:39:13;;;;;;;12.23;9.40;;;30.00;93.50;;;;;;5071529;28;20201;-74
2022/07/20 06:41:38;;;;;;;11.50;9.60;;;30.20;93.50;;;;;;5071657;28;20531;-74
2022/07/20 06:44:04;;;;;;;10.90;9.80;;;30.70;91.30;;;;;;5071511;28;20401;-74
2022/07/20 06:46:29;;;;;;;10.07;9.17;;;31.10;90.40;;;;;;5071290;28;20177;-75
2022/07/20 06:48:55;;;;;;;10.03;9.10;;;31.60;85.60;;;;;;5071456;28;20159;-75
2022/07/20 06:51:22;;;;;;;13.83;10.87;;;32.00;81.70;;;;;;5071534;28;20241;-75
2022/07/20 06:53:47;;;;;;;13.40;10.20;;;32.50;79.50;;;;;;5071602;28;20223;-74
2022/07/20 06:56:13;;;;;;;9.90;9.00;;;32.90;76.80;;;;;;5071199;28;20401;-75
2022/07/20 06:58:38;;;;;;;11.63;10.50;;;33.20;74.40;;;;;;5071367;28;20220;-74
2022/07/20 07:01:04;;;;;;;11.73;10.53;;;33.40;72.30;;;;;;5071318;28;20206;-74
2022/07/20 07:03:29;;;;;;;12.13;10.00;;;33.40;71.10;;;;;;5075089;28;20166;-74
2022/07/20 07:05:55;;;;;;;10.10;9.10;;;33.30;68.60;;;;;;5074914;28;20727;-74
2022/07/20 07:08:20;;;;;;;11.47;9.87;;;33.40;68.40;;;;;;5075040;28;20162;-75
2022/07/20 07:10:46;;;;;;;10.03;9.13;;;33.80;66.10;;;;;;5075007;28;20232;-75
2022/07/20 07:13:11;;;;;;;13.27;10.60;;;34.20;65.00;;;;;;5076974;28;20200;-76
2022/07/20 07:15:37;;;;;;;10.67;9.50;;;34.60;64.00;;;;;;5075711;28;20166;-76
2022/07/20 07:18:02;;;;;;;10.40;9.40;;;35.00;60.00;;;;;;5076969;28;20191;-75
2022/07/20 07:20:28;;;;;;;13.83;11.10;;;34.80;59.00;;;;;;5075294;28;20201;-76
2022/07/20 07:22:54;;;;;;;13.10;10.07;;;34.50;59.30;;;;;;5075683;28;20174;-76
2022/07/20 07:25:19;;;;;;;10.73;9.73;;;34.10;60.00;;;;;;5076763;28;20163;-76
2022/07/20 07:27:45;;;;;;;13.73;9.70;;;33.40;61.60;;;;;;5074834;28;20170;-74
2022/07/20 07:30:11;;;;;;;11.83;10.63;;;32.60;62.50;;;;;;5074624;28;20583;-74
2022/07/20 07:32:36;;;;;;;12.90;10.30;;;31.80;64.80;;;;;;5074531;28;20627;-73
2022/07/20 07:35:02;;;;;;;17.33;10.03;;;31.20;67.20;;;;;;5074240;28;20176;-74
2022/07/20 07:37:28;;;;;;;9.67;8.10;;;30.90;68.80;;;;;;5074457;28;20166;-74
2022/07/20 07:39:53;;;;;;;9.93;9.00;;;30.60;71.90;;;;;;5074397;28;20272;-74
2022/07/20 07:42:20;;;;;;;11.97;9.03;;;30.40;74.50;;;;;;5074454;28;20162;-74
2022/07/20 07:44:45;;;;;;;15.40;11.13;;;30.30;75.10;;;;;;5072956;28;20174;-74
2022/07/20 07:47:11;;;;;;;12.50;9.30;;;30.40;75.30;;;;;;5074485;28;20473;-74
2022/07/20 07:49:36;;;;;;;11.00;9.90;;;30.40;74.90;;;;;;5074421;28;20182;-74
2022/07/20 07:52:02;;;;;;;10.90;9.90;;;30.30;74.30;;;;;;5074257;28;20186;-74
2022/07/20 07:54:28;;;;;;;10.47;8.20;;;30.20;75.80;;;;;;5073905;28;20175;-75
2022/07/20 07:56:53;;;;;;;10.33;9.43;;;30.20;77.70;;;;;;5074121;28;20181;-74
2022/07/20 07:59:19;;;;;;;10.60;8.40;;;30.20;79.10;;;;;;5074190;28;20201;-74
2022/07/20 08:01:44;;;;;;;13.07;9.17;;;30.10;80.00;;;;;;5075053;28;20558;-74
2022/07/20 08:04:10;;;;;;;9.77;8.87;;;30.00;79.70;;;;;;5074453;28;20201;-73
2022/07/20 08:06:36;;;;;;;10.43;9.10;;;29.90;79.50;;;;;;5072629;28;20193;-74
2022/07/20 08:09:03;;;;;;;9.70;8.73;;;29.90;79.00;;;;;;5074085;28;20970;-74
2022/07/20 08:11:29;;;;;;;9.17;8.27;;;29.90;80.60;;;;;;5074025;28;20409;-74
2022/07/20 08:13:54;;;;;;;9.60;8.53;;;30.20;80.10;;;;;;5073521;28;20808;-74
2022/07/20 08:16:20;;;;;;;11.30;8.60;;;30.90;78.30;;;;;;5072586;28;20178;-74
2022/07/20 08:18:46;;;;;;;8.67;7.83;;;32.20;77.40;;;;;;5073992;28;20170;-75
2022/07/20 08:21:11;;;;;;;11.27;9.80;;;33.80;70.30;;;;;;5073738;28;20671;-75
2022/07/20 08:23:37;;;;;;;9.80;8.80;;;35.10;62.10;;;;;;5073726;28;20651;-75
2022/07/20 08:26:02;;;;;;;9.70;8.40;;;36.00;58.80;;;;;;5073405;28;20654;-75
2022/07/20 08:28:28;;;;;;;12.77;10.07;;;36.00;57.10;;;;;;5073840;28;20529;-75
2022/07/20 08:30:53;;;;;;;9.53;8.60;;;35.30;56.70;;;;;;5072595;28;20190;-75
2022/07/20 08:33:19;;;;;;;10.07;8.67;;;34.50;58.60;;;;;;5072391;28;20205;-75
2022/07/20 08:35:46;;;;;;;9.47;8.33;;;33.80;61.30;;;;;;5071729;28;20219;-74
2022/07/20 08:38:12;;;;;;;11.33;10.23;;;33.10;64.10;;;;;;5073593;28;20491;-74
2022/07/20 08:40:38;;;;;;;10.70;8.90;;;32.60;64.50;;;;;;5073072;28;20514;-74
2022/07/20 08:43:05;;;;;;;9.67;7.87;;;32.20;66.20;;;;;;5072201;28;20224;-74
2022/07/20 08:45:31;;;;;;;13.13;8.60;;;31.70;68.40;;;;;;5071708;28;20515;-74
2022/07/20 08:48:00;;;;;;;8.77;7.87;;;31.20;72.30;;;;;;5073349;28;20429;-74
2022/07/20 08:50:29;;;;;;;9.83;8.83;;;31.00;74.80;;;;;;5073089;28;20486;-74
2022/07/20 08:52:56;;;;;;;12.70;8.90;;;30.60;76.60;;;;;;5072948;28;20434;-74
2022/07/20 08:55:23;;;;;;;9.77;8.80;;;30.40;78.20;;;;;;5072801;28;20396;-73
2022/07/20 08:57:49;;;;;;;9.57;7.90;;;30.40;80.70;;;;;;5073106;28;20411;-74
2022/07/20 09:00:15;;;;;;;12.73;9.77;;;30.50;85.30;;;;;;5072895;28;20452;-73
2022/07/20 09:03:03;;;;;;;9.80;8.80;;;30.80;85.50;;;;;;5073013;28;20208;-75
2022/07/20 09:05:31;;;;;;;9.37;8.40;;;31.90;80.80;;;;;;5072910;28;20396;-75
2022/07/20 09:07:58;;;;;;;10.17;8.90;;;33.50;75.70;;;;;;5073187;28;20401;-75
2022/07/20 09:10:28;;;;;;;12.53;9.70;;;34.80;71.40;;;;;;5072792;28;20420;-75
2022/07/20 09:12:59;;;;;;;12.43;9.00;;;35.40;66.20;;;;;;5072886;28;20916;-75
2022/07/20 09:15:42;;;;;;;9.50;8.07;;;35.80;63.60;;;;;;5072462;28;20962;-75
2022/07/20 09:18:20;;;;;;;10.83;9.73;;;35.90;60.90;;;;;;5072966;28;20405;-75
2022/07/20 09:20:57;;;;;;;10.70;9.57;;;36.10;61.60;;;;;;5072434;28;20497;-75
2022/07/20 09:23:43;;;;;;;10.23;9.33;;;36.50;59.20;;;;;;5072453;28;20408;-75
2022/07/20 09:26:15;;;;;;;9.43;8.50;;;37.20;57.30;;;;;;5071350;28;20397;-76
2022/07/20 09:28:44;;;;;;;9.80;8.80;;;38.60;54.60;;;;;;5072521;28;20433;-76
2022/07/20 09:31:33;;;;;;;9.83;8.90;;;39.90;51.20;;;;;;5071326;28;20405;-76
2022/07/20 09:34:12;;;;;;;11.13;9.80;;;41.10;50.80;;;;;;5072532;28;20440;-76
2022/07/20 09:36:40;;;;;;;8.70;8.00;;;42.70;45.20;;;;;;5072315;28;20897;-75
2022/07/20 09:39:13;;;;;;;9.73;8.90;;;43.60;43.30;;;;;;5072179;28;20475;-75
2022/07/20 09:41:44;;;;;;;10.13;9.13;;;44.70;42.30;;;;;;5072516;28;20421;-74
2022/07/20 09:44:22;;;;;;;9.20;8.40;;;45.10;39.20;;;;;;5072200;28;20828;-74
2022/07/20 09:46:47;;;;;;;9.23;8.40;;;44.80;38.00;;;;;;5072254;28;20379;-75
2022/07/20 09:49:13;;;;;;;10.67;9.70;;;44.20;38.30;;;;;;5072143;28;20421;-74
2022/07/20 09:51:41;;;;;;;9.50;8.60;;;44.20;37.70;;;;;;5070952;28;20239;-74
2022/07/20 09:54:12;;;;;;;8.80;8.10;;;44.30;37.20;;;;;;5072488;28;20169;-75
2022/07/20 09:56:40;;;;;;;11.63;9.33;;;44.50;37.30;;;;;;5072165;28;20386;-75
2022/07/20 09:59:09;;;;;;;10.20;9.40;;;44.10;36.70;;;;;;5071957;28;20466;-74
2022/07/20 10:01:40;;;;;;;8.47;7.67;;;43.50;37.40;;;;;;5070859;28;20978;-75
2022/07/20 10:04:08;;;;;;;11.00;9.90;;;42.40;39.30;;;;;;5072314;28;20458;-75
2022/07/20 10:06:35;;;;;;;11.67;9.70;;;42.50;40.30;;;;;;5071980;28;20386;-74
2022/07/20 10:09:03;;;;;;;10.40;9.50;;;43.20;39.60;;;;;;5072233;28;20393;-74
2022/07/20 10:11:29;;;;;;;10.60;8.63;;;44.00;39.50;;;;;;5071767;28;20529;-75
2022/07/20 10:13:56;;;;;;;11.63;9.97;;;44.80;38.20;;;;;;5071903;28;20379;-74
2022/07/20 10:16:34;;;;;;;9.83;9.03;;;45.80;35.60;;;;;;5071740;28;20430;-75
2022/07/20 10:19:01;;;;;;;9.70;8.70;;;45.50;35.70;;;;;;5072000;28;20454;-75
2022/07/20 10:21:37;;;;;;;9.53;8.13;;;45.70;36.70;;;;;;5072110;28;20456;-75
2022/07/20 10:24:19;;;;;;;8.90;8.00;;;46.40;35.70;;;;;;5071061;28;20470;-75
2022/07/20 10:26:50;;;;;;;9.03;8.20;;;47.10;35.20;;;;;;5072018;28;20740;-75
2022/07/20 10:29:36;;;;;;;8.33;7.60;;;47.60;33.40;;;;;;5070659;28;20395;-75
2022/07/20 10:32:16;;;;;;;11.43;9.20;;;47.80;32.70;;;;;;5072128;28;20389;-75
2022/07/20 10:34:47;;;;;;;8.47;7.80;;;48.20;32.70;;;;;;5071984;28;20912;-75
2022/07/20 10:37:38;;;;;;;10.50;8.30;;;48.20;31.50;;;;;;5074049;28;20400;-76
2022/07/20 10:40:17;;;;;;;8.07;7.47;;;48.10;31.60;;;;;;5076094;28;20427;-76
2022/07/20 10:42:51;;;;;;;7.83;7.33;;;48.20;32.20;;;;;;5075947;28;20413;-76
2022/07/20 10:45:16;;;;;;;8.60;7.90;;;48.50;31.30;;;;;;5075777;28;20433;-76
2022/07/20 10:47:54;;;;;;;7.33;6.73;;;48.60;31.00;;;;;;5076234;28;21042;-76
2022/07/20 10:50:27;;;;;;;7.00;6.33;;;48.20;30.00;;;;;;5076376;28;20243;-76
2022/07/20 10:52:58;;;;;;;8.20;7.50;;;47.90;31.30;;;;;;5074975;28;20436;-76
2022/07/20 10:55:33;;;;;;;7.43;6.90;;;48.20;30.90;;;;;;5076096;28;20832;-76
2022/07/20 10:58:00;;;;;;;7.00;6.40;;;48.80;30.40;;;;;;5074920;28;20420;-76
2022/07/20 11:00:30;;;;;;;7.20;6.60;;;48.90;29.90;;;;;;5075486;28;20448;-76
2022/07/20 11:02:57;;;;;;;7.87;7.10;;;49.40;30.10;;;;;;5075889;28;20500;-76
2022/07/20 11:05:23;;;;;;;6.17;5.77;;;49.30;28.80;;;;;;5075560;28;21068;-75
2022/07/20 11:07:49;;;;;;;7.20;6.60;;;49.10;28.80;;;;;;5075888;28;20382;-76
2022/07/20 11:10:25;;;;;;;7.47;6.87;;;48.60;30.00;;;;;;5075987;28;20259;-75
2022/07/20 11:12:57;;;;;;;7.37;6.77;;;48.80;29.60;;;;;;5075305;28;20404;-76
2022/07/20 11:15:24;;;;;;;6.80;6.20;;;49.10;29.60;;;;;;5075734;28;20404;-76
2022/07/20 11:17:54;;;;;;;7.87;7.17;;;49.50;29.20;;;;;;5074513;28;20439;-76
2022/07/20 11:20:19;;;;;;;7.20;6.60;;;49.90;29.20;;;;;;5075792;28;20459;-76
2022/07/20 11:22:45;;;;;;;6.90;6.40;;;49.60;29.30;;;;;;5075731;28;20396;-76
2022/07/20 11:25:11;;;;;;;7.43;6.70;;;49.20;29.50;;;;;;5074309;28;20166;-76
2022/07/20 11:27:36;;;;;;;7.97;7.20;;;48.50;30.10;;;;;;5075785;28;20573;-77
2022/07/20 11:30:02;;;;;;;7.60;7.00;;;48.40;30.40;;;;;;5075244;28;20229;-77
2022/07/20 11:32:28;;;;;;;7.00;6.40;;;48.80;30.20;;;;;;5075220;28;20721;-77
2022/07/20 11:34:54;;;;;;;7.07;6.47;;;49.10;29.40;;;;;;5075084;28;20479;-77
2022/07/20 11:37:21;;;;;;;6.40;5.90;;;49.10;29.50;;;;;;5073950;28;20173;-77
2022/07/20 11:39:47;;;;;;;5.80;5.30;;;49.40;29.50;;;;;;5075293;28;20789;-77
2022/07/20 11:42:15;;;;;;;6.67;6.17;;;49.20;28.70;;;;;;5075359;28;20436;-77
2022/07/20 11:44:42;;;;;;;7.47;6.07;;;48.30;28.80;;;;;;5074931;28;20733;-77
2022/07/20 11:47:08;;;;;;;7.00;6.40;;;47.20;29.30;;;;;;5074635;28;20375;-76
2022/07/20 11:49:34;;;;;;;8.60;6.13;;;45.70;30.00;;;;;;5073466;28;20501;-76
2022/07/20 11:52:05;;;;;;;6.13;5.63;;;45.10;31.00;;;;;;5074386;28;20478;-76
2022/07/20 11:54:35;;;;;;;5.07;4.60;;;44.50;31.90;;;;;;5074212;28;20249;-77
2022/07/20 11:57:02;;;;;;;5.70;5.30;;;44.30;31.80;;;;;;5074518;28;20400;-76
2022/07/20 11:59:28;;;;;;;6.27;5.77;;;44.20;32.20;;;;;;5074260;28;20403;-76
2022/07/20 12:01:56;;;;;;;5.50;5.00;;;44.90;33.50;;;;;;5072946;28;20931;-76
2022/07/20 12:04:22;;;;;;;6.40;5.80;;;46.00;32.60;;;;;;5074098;28;20174;-76
2022/07/20 12:06:51;;;;;;;5.30;4.90;;;47.00;30.30;;;;;;5074243;28;20383;-77
2022/07/20 12:09:33;;;;;;;5.20;4.70;;;47.80;30.10;;;;;;5073197;28;20430;-76
2022/07/20 12:12:01;;;;;;;5.93;5.53;;;48.00;30.50;;;;;;5074143;28;20371;-77
2022/07/20 12:14:30;;;;;;;5.70;5.20;;;48.50;30.00;;;;;;5072586;28;20413;-76
2022/07/20 12:17:09;;;;;;;4.93;4.50;;;48.40;29.50;;;;;;5073982;28;20375;-77
2022/07/20 12:19:34;;;;;;;4.70;4.40;;;48.20;29.30;;;;;;5074101;28;20511;-77
2022/07/20 12:22:00;;;;;;;5.30;4.90;;;48.50;29.40;;;;;;5074027;28;20985;-77
2022/07/20 12:24:26;;;;;;;5.40;5.00;;;48.10;29.20;;;;;;5073735;28;20175;-76
2022/07/20 12:27:03;;;;;;;5.33;4.83;;;47.90;29.00;;;;;;5073875;28;20166;-75
2022/07/20 12:29:29;;;;;;;4.70;4.40;;;47.40;28.50;;;;;;5072570;28;20228;-76
2022/07/20 12:32:03;;;;;;;4.83;4.03;;;46.60;29.60;;;;;;5073693;28;20379;-78
2022/07/20 12:34:31;;;;;;;4.20;3.90;;;46.70;30.50;;;;;;5073448;28;20226;-77
2022/07/20 12:36:58;;;;;;;7.20;4.67;;;46.70;29.40;;;;;;5073732;28;20793;-76
2022/07/20 12:39:41;;;;;;;4.97;4.60;;;46.00;30.80;;;;;;5073569;28;20411;-76
2022/07/20 12:42:11;;;;;;;4.80;4.50;;;45.10;30.80;;;;;;5073349;28;20375;-76
2022/07/20 12:44:37;;;;;;;4.50;4.20;;;44.40;31.80;;;;;;5072981;28;20375;-76
2022/07/20 12:47:03;;;;;;;4.37;4.00;;;43.90;32.00;;;;;;5073372;28;20396;-75